createdAt,value
2022-07-29T00:06:50.440Z,17.70
2022-07-29T00:11:46.244Z,17.60
2022-07-29T00:17:23.899Z,17.60
2022-07-29T00:21:52.707Z,17.50
2022-07-29T00:26:48.466Z,17.50
2022-07-29T00:31:54.140Z,17.40
2022-07-29T00:42:10.926Z,17.30
2022-07-29T00:46:56.121Z,17.30
2022-07-29T00:51:54.708Z,17.20
2022-07-29T00:57:16.058Z,17.20
2022-07-29T01:01:56.231Z,17.10
2022-07-29T01:06:56.865Z,17.10
2022-07-29T01:11:57.715Z,17.00
2022-07-29T01:17:03.495Z,17.00
2022-07-29T01:21:38.332Z,16.90
2022-07-29T01:26:38.027Z,16.90
2022-07-29T01:31:51.373Z,16.80
2022-07-29T01:36:39.563Z,16.80
2022-07-29T01:41:40.264Z,16.70
2022-07-29T01:46:40.934Z,16.70
2022-07-29T01:51:46.511Z,16.60
2022-07-29T02:01:43.326Z,16.50
2022-07-29T02:06:43.961Z,16.40
2022-07-29T02:11:44.693Z,16.40
2022-07-29T02:16:45.397Z,16.30
2022-07-29T02:21:41.651Z,16.30
2022-07-29T02:26:41.522Z,16.30
2022-07-29T02:31:42.069Z,16.30
2022-07-29T02:36:42.874Z,16.20
2022-07-29T02:41:43.527Z,16.20
2022-07-29T02:46:44.378Z,16.20
2022-07-29T02:56:45.760Z,16.10
2022-07-29T03:21:49.553Z,16.10
2022-07-29T03:26:55.098Z,16.10
2022-07-29T03:36:52.096Z,16.10
2022-07-29T03:41:52.420Z,16.10
2022-07-29T03:46:55.946Z,16.10
2022-07-29T03:51:57.253Z,16.10
2022-07-29T03:56:57.447Z,16.10
2022-07-29T04:02:03.453Z,16.10
2022-07-29T04:06:58.869Z,16.10
2022-07-29T04:12:04.664Z,16.10
2022-07-29T04:17:00.421Z,16.10
2022-07-29T04:22:01.140Z,16.10
2022-07-29T04:27:01.937Z,16.10
2022-07-29T04:32:02.598Z,16.20
2022-07-29T04:37:03.329Z,16.20
2022-07-29T04:42:08.898Z,16.20
2022-07-29T04:47:04.709Z,16.20
2022-07-29T04:52:05.459Z,16.20
2022-07-29T04:57:06.138Z,16.30
2022-07-29T05:02:11.702Z,16.30
2022-07-29T05:07:07.538Z,16.30
2022-07-29T05:12:08.293Z,16.30
2022-07-29T05:17:13.907Z,16.40
2022-07-29T05:22:09.614Z,16.40
2022-07-29T05:27:11.075Z,16.40
2022-07-29T05:32:10.999Z,16.40
2022-07-29T05:37:11.794Z,16.40
2022-07-29T05:42:17.343Z,16.40
2022-07-29T05:47:13.152Z,16.50
2022-07-29T05:52:18.704Z,16.50
2022-07-29T05:57:19.334Z,16.50
2022-07-29T06:02:20.090Z,16.60
2022-07-29T06:07:20.734Z,16.60
2022-07-29T06:12:16.550Z,16.60
2022-07-29T06:17:17.320Z,16.70
2022-07-29T06:22:18.115Z,16.70
2022-07-29T06:27:18.839Z,16.80
2022-07-29T06:32:19.550Z,16.90
2022-07-29T06:37:20.220Z,16.90
2022-07-29T06:42:25.776Z,17.00
2022-07-29T06:51:44.951Z,17.20
2022-07-29T06:56:40.619Z,17.30
2022-07-29T07:01:39.170Z,17.40
2022-07-29T07:06:38.115Z,17.50
2022-07-29T07:11:39.127Z,17.60
2022-07-29T07:21:40.778Z,17.80
2022-07-29T07:26:43.589Z,17.90
2022-07-29T07:37:15.698Z,18.10
2022-07-29T07:47:03.795Z,18.30
2022-07-29T07:51:44.810Z,18.40
2022-07-29T07:56:46.257Z,18.50
2022-07-29T08:01:47.710Z,18.60
2022-07-29T08:06:46.960Z,18.70
2022-07-29T08:11:51.619Z,18.80
2022-07-29T08:16:51.253Z,18.90
2022-07-29T08:22:10.286Z,19.00
2022-07-29T08:26:53.446Z,19.10
2022-07-29T08:31:54.773Z,19.30
2022-07-29T08:36:55.427Z,19.40
2022-07-29T08:41:57.055Z,19.50
2022-07-29T08:46:55.693Z,19.60
2022-07-29T08:56:33.476Z,19.90
2022-07-29T09:01:35.432Z,20.00
2022-07-29T09:26:29.046Z,20.60
2022-07-29T09:36:41.049Z,20.90
2022-07-29T09:41:36.787Z,21.00
2022-07-29T09:51:38.801Z,21.30
2022-07-29T09:56:36.062Z,21.40
2022-07-29T10:01:35.973Z,21.50
2022-07-29T10:06:41.153Z,21.70
2022-07-29T10:11:48.820Z,21.90
2022-07-29T10:21:39.311Z,22.20
2022-07-29T10:26:48.451Z,22.30
2022-07-29T10:56:44.201Z,22.90
2022-07-29T11:06:42.798Z,23.10
2022-07-29T11:16:43.745Z,23.30
2022-07-29T11:26:42.738Z,23.50
2022-07-29T11:31:46.947Z,23.60
2022-07-29T11:56:38.161Z,24.10
2022-07-29T12:01:42.240Z,24.20
2022-07-29T12:06:46.467Z,24.20
2022-07-29T12:11:47.441Z,24.30
2022-07-29T12:16:42.359Z,24.40
2022-07-29T12:21:52.299Z,24.50
2022-07-29T12:26:48.707Z,24.50
2022-07-29T12:31:49.340Z,24.60
2022-07-29T12:36:49.785Z,24.60
2022-07-29T12:41:48.227Z,24.70
2022-07-29T12:46:53.763Z,24.80
2022-07-29T12:51:49.607Z,24.90
2022-07-29T12:56:50.279Z,24.90
2022-07-29T13:01:56.005Z,25.00
2022-07-29T13:06:51.643Z,25.00
2022-07-29T13:11:57.173Z,25.00
2022-07-29T13:16:57.903Z,25.00
2022-07-29T13:22:01.385Z,25.10
2022-07-29T13:26:56.975Z,25.10
2022-07-29T13:31:57.700Z,25.20
2022-07-29T13:36:58.155Z,25.20
2022-07-29T13:41:59.047Z,25.30
2022-07-29T13:47:04.201Z,25.40
2022-07-29T13:52:00.353Z,25.40
2022-07-29T13:57:00.583Z,25.50
2022-07-29T14:02:06.061Z,25.50
2022-07-29T14:07:03.468Z,25.60
2022-07-29T14:12:05.270Z,25.60
2022-07-29T14:17:05.888Z,25.70
2022-07-29T14:22:07.151Z,25.70
2022-07-29T14:27:08.348Z,25.80
2022-07-29T14:32:07.835Z,25.80
2022-07-29T14:37:08.567Z,25.80
2022-07-29T14:42:09.108Z,25.80
2022-07-29T14:47:09.718Z,25.90
2022-07-29T14:52:13.180Z,25.90
2022-07-29T14:57:13.842Z,26.00
2022-07-29T15:02:14.668Z,26.00
2022-07-29T15:07:19.889Z,26.00
2022-07-29T15:12:15.678Z,26.00
2022-07-29T15:17:20.944Z,26.00
2022-07-29T15:21:41.505Z,26.00
2022-07-29T15:26:36.832Z,26.00
2022-07-29T15:36:51.810Z,26.10
2022-07-29T15:41:40.925Z,26.10
2022-07-29T15:46:47.942Z,26.10
2022-07-29T15:51:42.920Z,26.20
2022-07-29T15:56:41.271Z,26.10
2022-07-29T16:06:39.891Z,26.20
2022-07-29T16:11:42.422Z,26.10
2022-07-29T16:16:40.223Z,26.10
2022-07-29T16:21:51.927Z,26.10
2022-07-29T16:26:41.367Z,26.10
2022-07-29T16:31:40.275Z,26.10
2022-07-29T16:36:43.623Z,26.10
2022-07-29T16:41:59.638Z,26.10
2022-07-29T16:46:32.455Z,26.10
2022-07-29T16:51:30.767Z,26.10
2022-07-29T16:56:36.569Z,26.10
2022-07-29T17:01:53.710Z,26.10
2022-07-29T17:16:39.854Z,26.00
2022-07-29T17:31:44.587Z,25.90
2022-07-29T17:41:46.310Z,25.90
2022-07-29T17:46:45.928Z,25.80
2022-07-29T17:51:39.839Z,25.80
2022-07-29T17:56:37.840Z,25.80
2022-07-29T18:01:38.415Z,25.70
2022-07-29T18:06:43.898Z,25.70
2022-07-29T18:11:44.345Z,25.60
2022-07-29T18:16:40.405Z,25.50
2022-07-29T18:21:54.090Z,25.50
2022-07-29T18:26:39.160Z,25.40
2022-07-29T18:31:43.442Z,25.30
2022-07-29T18:36:42.433Z,25.30
2022-07-29T18:46:44.899Z,25.10
2022-07-29T18:56:31.910Z,25.00
2022-07-29T19:21:37.905Z,24.60
2022-07-29T19:26:40.942Z,24.50
2022-07-29T19:31:40.748Z,24.50
2022-07-29T19:41:41.801Z,24.30
2022-07-29T19:46:44.006Z,24.30
2022-07-29T19:51:48.351Z,24.20
2022-07-29T19:56:45.172Z,24.10
2022-07-29T20:01:52.189Z,24.10
2022-07-29T20:11:48.137Z,23.90
2022-07-29T20:16:51.810Z,23.80
2022-07-29T20:21:52.138Z,23.80
2022-07-29T20:26:52.857Z,23.70
2022-07-29T20:32:01.172Z,23.70
2022-07-29T20:37:13.540Z,23.60
2022-07-29T20:41:41.842Z,23.50
2022-07-29T20:56:38.615Z,23.30
2022-07-29T21:01:38.302Z,23.20
2022-07-29T21:11:42.920Z,23.10
2022-07-29T21:21:30.916Z,23.00
2022-07-29T21:26:38.072Z,22.90
2022-07-29T21:31:37.569Z,22.90
2022-07-29T21:36:48.011Z,22.90
2022-07-29T21:41:38.018Z,22.80
2022-07-29T21:46:31.656Z,22.80
2022-07-29T21:51:36.051Z,22.70
2022-07-29T21:56:36.673Z,22.60
2022-07-29T22:01:39.221Z,22.60
2022-07-29T22:06:40.782Z,22.50
2022-07-29T22:11:41.650Z,22.50
2022-07-29T22:16:37.386Z,22.40
2022-07-29T22:21:42.826Z,22.30
2022-07-29T22:26:38.791Z,22.30
2022-07-29T22:31:39.398Z,22.20
2022-07-29T22:36:40.032Z,22.20
2022-07-29T22:41:45.578Z,22.10
2022-07-29T22:46:45.312Z,22.10
2022-07-29T22:51:45.329Z,22.00
2022-07-29T22:56:50.635Z,21.90
2022-07-29T23:01:46.298Z,21.90
2022-07-29T23:06:47.022Z,21.90
2022-07-29T23:11:47.630Z,21.80
2022-07-29T23:16:48.333Z,21.80
2022-07-29T23:21:48.978Z,21.70
2022-07-29T23:26:49.558Z,21.70
2022-07-29T23:31:50.286Z,21.60
2022-07-29T23:36:50.870Z,21.60
2022-07-29T23:41:56.419Z,21.50
2022-07-29T23:46:54.989Z,21.50
2022-07-29T23:52:00.543Z,21.40
2022-07-29T23:57:01.482Z,21.40
